Time;durP1;ratioP1;P1;durP2;ratioP2;P2;SDS_P1;SDS_P2;PMS_P1;PMS_P2;Temp;Humidity;BMP_temperature;BMP_pressure;BME280_temperature;BME280_humidity;BME280_pressure;Samples;Min_cycle;Max_cycle;Signal;HPM_P1;HPM_P2
2023/04/26 00:00:13;;;;;;;1999.90;999.90;;;4.80;99.90;;;;;;5057576;28;20041;-76
2023/04/26 00:02:40;;;;;;;1999.90;999.90;;;4.80;99.90;;;;;;5057462;28;20033;-76
2023/04/26 00:05:06;;;;;;;1999.90;999.90;;;4.80;99.90;;;;;;5057245;28;20026;-76
2023/04/26 00:07:32;;;;;;;1999.90;999.90;;;4.70;99.90;;;;;;5056818;28;20461;-76
2023/04/26 00:09:58;;;;;;;1999.90;999.90;;;4.60;99.90;;;;;;5039221;28;20517;-76
2023/04/26 00:12:24;;;;;;;1999.90;999.90;;;4.60;99.90;;;;;;5057264;28;20037;-76
2023/04/26 00:14:49;;;;;;;1999.90;999.90;;;4.50;99.90;;;;;;5038809;28;20827;-76
2023/04/26 00:17:15;;;;;;;1999.90;999.90;;;4.40;99.90;;;;;;5057109;28;20064;-76
2023/04/26 00:19:40;;;;;;;1999.90;999.90;;;4.50;99.90;;;;;;5057338;28;20033;-76
2023/04/26 00:22:07;;;;;;;1999.90;999.90;;;4.50;99.90;;;;;;5056873;28;20034;-76
2023/04/26 00:24:33;;;;;;;1999.90;999.90;;;4.60;99.90;;;;;;5038838;28;20088;-76
2023/04/26 00:27:00;;;;;;;1999.90;999.90;;;4.60;99.90;;;;;;5057163;28;20045;-76
2023/04/26 00:29:26;;;;;;;1999.90;999.90;;;4.70;99.90;;;;;;5056726;28;20536;-76
2023/04/26 00:31:52;;;;;;;1999.90;999.90;;;4.60;99.90;;;;;;5057105;28;20041;-76
2023/04/26 00:34:17;;;;;;;1999.90;999.90;;;4.60;99.90;;;;;;5038610;28;20036;-76
2023/04/26 00:36:43;;;;;;;1999.90;999.90;;;4.70;99.90;;;;;;5038526;28;20091;-76
2023/04/26 00:39:09;;;;;;;1999.90;999.90;;;4.80;99.90;;;;;;5056906;28;20117;-76
2023/04/26 00:41:35;;;;;;;1999.90;999.90;;;4.80;99.90;;;;;;5056693;28;20032;-76
2023/04/26 00:44:00;;;;;;;1999.90;999.90;;;4.80;99.90;;;;;;5056431;28;20852;-76
2023/04/26 00:46:27;;;;;;;1999.90;999.90;;;4.70;99.90;;;;;;5038777;28;20030;-76
2023/04/26 00:48:53;;;;;;;1999.90;999.90;;;4.70;99.90;;;;;;5038348;28;20061;-76
2023/04/26 00:51:19;;;;;;;1999.90;999.90;;;4.60;99.90;;;;;;5056661;28;20040;-76
2023/04/26 00:53:45;;;;;;;1999.90;999.90;;;4.50;99.90;;;;;;5056674;28;20438;-76
2023/04/26 00:56:11;;;;;;;1999.90;999.90;;;4.40;99.90;;;;;;5038465;28;20029;-76
2023/04/26 00:58:37;;;;;;;1999.90;999.90;;;4.30;99.90;;;;;;5056181;28;20517;-76
2023/04/26 01:01:03;;;;;;;1999.90;999.90;;;4.20;99.90;;;;;;5056515;28;20100;-76
2023/04/26 01:03:29;;;;;;;1999.90;999.90;;;4.20;99.90;;;;;;5056478;28;20056;-76
2023/04/26 01:05:54;;;;;;;1999.90;999.90;;;4.10;99.90;;;;;;5055950;28;20036;-76
2023/04/26 01:08:22;;;;;;;1999.90;999.90;;;4.00;99.90;;;;;;5055763;28;20037;-76
2023/04/26 01:10:48;;;;;;;1999.90;999.90;;;4.00;99.90;;;;;;5056258;28;20391;-76
2023/04/26 01:13:14;;;;;;;1999.90;999.90;;;4.00;99.90;;;;;;5038351;28;20142;-76
2023/04/26 01:15:49;;;;;;;1999.90;999.90;;;3.90;99.90;;;;;;5055840;28;20132;-76
2023/04/26 01:18:14;;;;;;;1999.90;999.90;;;3.80;99.90;;;;;;5038149;28;20030;-75
2023/04/26 01:20:41;;;;;;;1999.90;999.90;;;3.80;99.90;;;;;;5038193;28;20033;-76
2023/04/26 01:23:10;;;;;;;1999.90;999.90;;;3.80;99.90;;;;;;5055966;28;20057;-76
2023/04/26 01:25:36;;;;;;;1999.90;999.90;;;3.80;99.90;;;;;;5055908;28;20062;-76
2023/04/26 01:28:02;;;;;;;1999.90;999.90;;;3.70;99.90;;;;;;5055794;28;20109;-76
2023/04/26 01:30:28;;;;;;;1999.90;999.90;;;3.80;99.90;;;;;;5037961;28;20084;-76
2023/04/26 01:32:54;;;;;;;1999.90;999.90;;;3.80;99.90;;;;;;5056187;28;20060;-76
2023/04/26 01:35:19;;;;;;;1999.90;999.90;;;3.70;99.90;;;;;;5056360;28;20051;-76
2023/04/26 01:37:45;;;;;;;1999.90;999.90;;;3.70;99.90;;;;;;5056200;28;20483;-76
2023/04/26 01:40:11;;;;;;;1999.90;999.90;;;3.70;99.90;;;;;;5037336;28;23447;-76
2023/04/26 01:42:36;;;;;;;1999.90;999.90;;;3.70;99.90;;;;;;5055917;28;20048;-76
2023/04/26 01:45:02;;;;;;;1999.90;999.90;;;3.70;99.90;;;;;;5037450;28;20034;-76
2023/04/26 01:47:28;;;;;;;1999.90;999.90;;;3.60;99.90;;;;;;5037415;28;20077;-76
2023/04/26 01:49:53;;;;;;;1999.90;999.90;;;3.50;99.90;;;;;;5036867;28;20479;-76
2023/04/26 01:52:20;;;;;;;1999.90;999.90;;;3.50;99.90;;;;;;5062730;28;20064;-76
2023/04/26 01:54:45;;;;;;;1999.90;999.90;;;3.50;99.90;;;;;;5036981;28;20034;-76
2023/04/26 01:57:11;;;;;;;1999.90;999.90;;;3.50;99.90;;;;;;5055605;28;20367;-76
2023/04/26 01:59:36;;;;;;;1999.90;999.90;;;3.50;99.90;;;;;;5055559;28;20076;-76
2023/04/26 02:02:02;;;;;;;1999.90;999.90;;;3.50;99.90;;;;;;5055367;28;20053;-76
2023/04/26 02:04:27;;;;;;;1999.90;999.90;;;3.50;99.90;;;;;;5055342;28;20045;-75
2023/04/26 02:06:53;;;;;;;1999.90;999.90;;;3.50;99.90;;;;;;5055739;28;20064;-76
2023/04/26 02:09:19;;;;;;;1999.90;999.90;;;3.60;99.90;;;;;;5055574;28;20045;-76
2023/04/26 02:11:44;;;;;;;1999.90;999.90;;;3.60;99.90;;;;;;5055421;28;20037;-75
2023/04/26 02:14:10;;;;;;;1999.90;999.90;;;3.60;99.90;;;;;;5055198;28;20052;-76
2023/04/26 02:16:35;;;;;;;1999.90;999.90;;;3.60;99.90;;;;;;5055214;28;20041;-76
2023/04/26 02:19:04;;;;;;;1999.90;999.90;;;3.80;99.90;;;;;;5055240;28;20038;-76
2023/04/26 02:21:29;;;;;;;1999.90;999.90;;;3.80;99.90;;;;;;5055343;28;20025;-76
2023/04/26 02:23:55;;;;;;;1999.90;999.90;;;3.80;99.90;;;;;;5054962;28;20045;-76
2023/04/26 02:26:20;;;;;;;1999.90;999.90;;;3.70;99.90;;;;;;5055320;28;20443;-76
2023/04/26 02:28:46;;;;;;;1999.90;999.90;;;3.80;99.90;;;;;;5054891;28;20038;-76
2023/04/26 02:31:11;;;;;;;1999.90;999.90;;;3.90;99.90;;;;;;5054842;28;20025;-76
2023/04/26 02:33:37;;;;;;;1999.90;999.90;;;3.90;99.90;;;;;;5036900;28;20037;-76
2023/04/26 02:36:04;;;;;;;1999.90;999.90;;;3.80;99.90;;;;;;5054787;28;20406;-76
2023/04/26 02:38:33;;;;;;;1999.90;999.90;;;3.70;99.90;;;;;;5037220;28;20116;-76
2023/04/26 02:41:00;;;;;;;1999.90;999.90;;;3.70;99.90;;;;;;5037007;28;20120;-76
2023/04/26 02:43:26;;;;;;;1999.90;999.90;;;3.60;99.90;;;;;;5054754;28;20045;-76
2023/04/26 02:45:51;;;;;;;1999.90;999.90;;;3.50;99.90;;;;;;5036465;28;20026;-76
2023/04/26 02:48:17;;;;;;;1999.90;999.90;;;3.50;99.90;;;;;;5054815;28;20065;-75
2023/04/26 02:50:43;;;;;;;1999.90;999.90;;;3.40;99.90;;;;;;5036899;28;20034;-76
2023/04/26 02:53:08;;;;;;;1999.90;999.90;;;3.30;99.90;;;;;;5054760;28;20037;-76
2023/04/26 02:55:35;;;;;;;1999.90;999.90;;;3.30;99.90;;;;;;5054655;28;20029;-76
2023/04/26 02:58:00;;;;;;;1999.90;999.90;;;3.30;99.90;;;;;;5054707;28;20116;-76
2023/04/26 03:00:27;;;;;;;1999.90;999.90;;;3.20;99.90;;;;;;5054877;28;20112;-76
2023/04/26 03:02:52;;;;;;;1999.90;999.90;;;3.20;99.90;;;;;;5054787;28;20065;-76
2023/04/26 03:05:18;;;;;;;1999.90;999.90;;;3.20;99.90;;;;;;5054594;28;20451;-76
2023/04/26 03:07:45;;;;;;;1999.90;999.90;;;3.20;99.90;;;;;;5036121;28;20037;-75
2023/04/26 03:10:10;;;;;;;1999.90;999.90;;;3.20;99.90;;;;;;5036730;28;20480;-76
2023/04/26 03:12:36;;;;;;;1999.90;999.90;;;3.20;99.90;;;;;;5036586;28;20037;-76
2023/04/26 03:15:02;;;;;;;1999.90;999.90;;;3.00;99.90;;;;;;5054580;28;20365;-76
2023/04/26 03:17:28;;;;;;;1999.90;999.90;;;2.90;99.90;;;;;;5036432;28;20045;-76
2023/04/26 03:19:54;;;;;;;1999.90;999.90;;;2.80;99.90;;;;;;5054750;28;20495;-76
2023/04/26 03:22:20;;;;;;;1999.90;999.90;;;2.90;99.90;;;;;;5036196;28;20073;-76
2023/04/26 03:24:46;;;;;;;1999.90;999.90;;;2.80;99.90;;;;;;5054099;28;20037;-75
2023/04/26 03:27:12;;;;;;;1999.90;999.90;;;2.70;99.90;;;;;;5054304;28;20037;-75
2023/04/26 03:29:38;;;;;;;1999.90;999.90;;;2.70;99.90;;;;;;5054542;28;20029;-76
2023/04/26 03:32:03;;;;;;;1999.90;999.90;;;2.60;99.90;;;;;;5054418;28;20751;-76
2023/04/26 03:34:29;;;;;;;1999.90;999.90;;;2.60;99.90;;;;;;5054284;28;20422;-76
2023/04/26 03:36:55;;;;;;;1999.90;999.90;;;2.70;99.90;;;;;;5036295;28;20033;-76
2023/04/26 03:39:21;;;;;;;1999.90;999.90;;;2.70;99.90;;;;;;5035989;28;20029;-76
2023/04/26 03:41:46;;;;;;;1999.90;999.90;;;2.60;99.90;;;;;;5035846;28;20506;-75
2023/04/26 03:44:13;;;;;;;1999.90;999.90;;;2.60;99.90;;;;;;5054102;28;20494;-76
2023/04/26 03:46:38;;;;;;;1999.90;999.90;;;2.50;99.90;;;;;;5054392;28;20112;-76
2023/04/26 03:49:04;;;;;;;1999.90;999.90;;;2.50;99.90;;;;;;5036364;28;20100;-76
2023/04/26 03:51:30;;;;;;;1999.90;999.90;;;2.50;99.90;;;;;;5036477;28;20479;-76
2023/04/26 03:53:56;;;;;;;1999.90;999.90;;;2.50;99.90;;;;;;5053676;28;20041;-75
2023/04/26 03:56:22;;;;;;;1999.90;999.90;;;2.50;99.90;;;;;;5054382;28;20060;-76
2023/04/26 03:58:47;;;;;;;1999.90;999.90;;;2.40;99.90;;;;;;5054024;28;20037;-75
2023/04/26 04:01:13;;;;;;;1999.90;999.90;;;2.40;99.90;;;;;;5053708;28;20040;-76
2023/04/26 04:03:38;;;;;;;1999.90;999.90;;;2.50;99.90;;;;;;5054186;28;20044;-76
2023/04/26 04:06:04;;;;;;;1999.90;999.90;;;2.50;99.90;;;;;;5053965;28;20030;-75
2023/04/26 04:08:30;;;;;;;1999.90;999.90;;;2.40;99.90;;;;;;5082544;22;20045;-75
2023/04/26 04:10:56;;;;;;;1999.90;999.90;;;2.40;99.90;;;;;;5072724;28;20041;-75
2023/04/26 04:13:21;;;;;;;1999.90;999.90;;;2.40;99.90;;;;;;5074074;28;20033;-75
2023/04/26 04:15:48;;;;;;;1999.90;999.90;;;2.40;99.90;;;;;;5073834;28;20044;-75
2023/04/26 04:18:13;;;;;;;1999.90;999.90;;;2.40;99.90;;;;;;5077220;28;20108;-76
2023/04/26 04:20:40;;;;;;;1999.90;999.90;;;2.40;99.90;;;;;;5059033;28;20123;-75
2023/04/26 04:23:06;;;;;;;1999.90;999.90;;;2.50;99.90;;;;;;5077126;28;20107;-75
2023/04/26 04:25:33;;;;;;;1999.90;999.90;;;2.50;99.90;;;;;;5077170;28;20036;-76
2023/04/26 04:28:00;;;;;;;1999.90;999.90;;;2.60;99.90;;;;;;5077072;28;20029;-76
2023/04/26 04:30:26;;;;;;;1999.90;999.90;;;2.70;99.90;;;;;;5076770;28;20112;-75
2023/04/26 04:32:52;;;;;;;1999.90;999.90;;;2.60;99.90;;;;;;5058923;28;20033;-76
2023/04/26 04:35:18;;;;;;;1999.90;999.90;;;2.60;99.90;;;;;;5058696;28;20035;-76
2023/04/26 04:37:44;;;;;;;1999.90;999.90;;;2.60;99.90;;;;;;5058532;28;20037;-76
2023/04/26 04:40:10;;;;;;;1999.90;999.90;;;2.70;99.90;;;;;;5058928;28;20029;-76
2023/04/26 04:42:36;;;;;;;1999.90;999.90;;;2.70;99.90;;;;;;5077365;28;20124;-75
2023/04/26 04:45:02;;;;;;;1999.90;999.90;;;2.70;99.90;;;;;;5058328;28;20429;-75
2023/04/26 04:47:27;;;;;;;1999.90;999.90;;;2.70;99.90;;;;;;5077098;28;20051;-76
2023/04/26 04:49:53;;;;;;;1999.90;999.90;;;2.60;99.90;;;;;;5077011;28;20501;-76
2023/04/26 04:52:20;;;;;;;1999.90;999.90;;;2.60;99.90;;;;;;5076939;28;20033;-77
2023/04/26 04:54:46;;;;;;;1999.90;999.90;;;2.60;99.90;;;;;;5076551;28;20029;-77
2023/04/26 04:57:12;;;;;;;1999.90;999.90;;;2.70;99.90;;;;;;5058554;28;20108;-77
2023/04/26 04:59:38;;;;;;;1999.90;999.90;;;2.80;99.90;;;;;;5058037;28;20033;-77
2023/04/26 05:02:04;;;;;;;1999.90;999.90;;;2.80;99.90;;;;;;5076286;28;20037;-77
2023/04/26 05:04:32;;;;;;;1999.90;999.90;;;2.80;99.90;;;;;;5076896;28;20028;-77
2023/04/26 05:06:58;;;;;;;1999.90;999.90;;;2.80;99.90;;;;;;5059519;28;20036;-76
2023/04/26 05:09:24;;;;;;;1999.90;999.90;;;2.80;99.90;;;;;;5075842;28;20534;-76
2023/04/26 05:11:50;;;;;;;1999.90;999.90;;;2.80;99.90;;;;;;5076751;28;20112;-76
2023/04/26 05:14:16;;;;;;;1999.90;999.90;;;2.80;99.90;;;;;;5058125;28;20028;-76
2023/04/26 05:16:41;;;;;;;1999.90;999.90;;;2.90;99.90;;;;;;5077555;28;20509;-75
2023/04/26 05:19:07;;;;;;;1999.90;999.90;;;3.00;99.90;;;;;;5076349;28;20041;-74
2023/04/26 05:21:33;;;;;;;1999.90;999.90;;;3.00;99.90;;;;;;5076613;28;20056;-77
2023/04/26 05:23:58;;;;;;;1999.90;999.90;;;3.00;99.90;;;;;;5075864;28;20542;-74
2023/04/26 05:26:23;;;;;;;1999.90;999.90;;;3.10;99.90;;;;;;5076468;28;20047;-74
2023/04/26 05:28:49;;;;;;;1999.90;999.90;;;3.10;99.90;;;;;;5074991;28;20049;-75
2023/04/26 05:31:15;;;;;;;1999.90;999.90;;;3.10;99.90;;;;;;5076288;28;20040;-74
2023/04/26 05:33:41;;;;;;;1999.90;999.90;;;3.20;99.90;;;;;;5076276;28;20111;-74
2023/04/26 05:36:08;;;;;;;1999.90;999.90;;;3.30;99.90;;;;;;5076211;28;20064;-74
2023/04/26 05:38:34;;;;;;;1999.90;999.90;;;3.40;99.90;;;;;;5057443;28;20037;-74
2023/04/26 05:41:00;;;;;;;1999.90;999.90;;;3.30;99.90;;;;;;5076208;28;20120;-73
2023/04/26 05:43:25;;;;;;;1999.90;999.90;;;3.40;99.90;;;;;;5057830;28;20040;-73
2023/04/26 05:45:55;;;;;;;1999.90;999.90;;;3.50;99.90;;;;;;5057578;28;20055;-75
2023/04/26 05:48:22;;;;;;;1999.90;999.90;;;3.50;99.90;;;;;;5057409;28;20068;-74
2023/04/26 05:50:48;;;;;;;1999.90;999.90;;;3.50;99.90;;;;;;5076033;28;20032;-76
2023/04/26 05:53:14;;;;;;;1999.90;999.90;;;3.60;99.90;;;;;;5075911;28;20040;-75
2023/04/26 05:55:41;;;;;;;1999.90;999.90;;;3.70;99.90;;;;;;5075804;28;20032;-76
2023/04/26 05:58:07;;;;;;;1999.90;999.90;;;3.70;99.90;;;;;;5075693;28;20033;-74
2023/04/26 06:00:32;;;;;;;1999.90;999.90;;;3.80;99.90;;;;;;5075909;28;20036;-75
2023/04/26 06:02:58;;;;;;;1999.90;999.90;;;3.80;99.90;;;;;;5075537;28;20136;-74
2023/04/26 06:05:23;;;;;;;1999.90;999.90;;;3.90;99.90;;;;;;5075555;28;20036;-75
2023/04/26 06:07:49;;;;;;;1999.90;999.90;;;3.90;99.90;;;;;;5074631;28;20040;-75
2023/04/26 06:10:15;;;;;;;1999.90;999.90;;;4.00;99.90;;;;;;5075791;28;20033;-74
2023/04/26 06:12:41;;;;;;;1999.90;999.90;;;4.00;99.90;;;;;;5057280;28;20043;-74
2023/04/26 06:15:07;;;;;;;1999.90;999.90;;;4.10;99.90;;;;;;5075370;28;20513;-74
2023/04/26 06:17:33;;;;;;;1999.90;999.90;;;4.10;99.90;;;;;;5075325;28;20037;-74
2023/04/26 06:19:58;;;;;;;1999.90;999.90;;;4.30;99.90;;;;;;5075130;28;20025;-74
2023/04/26 06:22:24;;;;;;;1999.90;999.90;;;4.30;99.90;;;;;;5075452;28;20067;-74
2023/04/26 06:24:50;;;;;;;1999.90;999.90;;;4.40;99.90;;;;;;5075145;28;20123;-75
2023/04/26 06:27:15;;;;;;;1999.90;999.90;;;4.50;99.90;;;;;;5056972;28;20112;-74
2023/04/26 06:29:42;;;;;;;1999.90;999.90;;;4.60;99.90;;;;;;5056801;28;20479;-74
2023/04/26 06:32:08;;;;;;;1999.90;999.90;;;4.80;99.90;;;;;;5075310;28;20078;-74
2023/04/26 06:34:34;;;;;;;1999.90;999.90;;;4.90;99.90;;;;;;5056802;28;20441;-74
2023/04/26 06:37:00;;;;;;;1999.90;999.90;;;5.00;99.90;;;;;;5075170;28;20044;-74
2023/04/26 06:39:25;;;;;;;1999.90;999.90;;;5.00;99.90;;;;;;5074672;28;20387;-74
2023/04/26 06:41:51;;;;;;;1999.90;999.90;;;5.10;99.90;;;;;;5074746;28;20398;-74
2023/04/26 06:44:16;;;;;;;1999.90;999.90;;;5.20;99.90;;;;;;5074684;28;20045;-74
2023/04/26 06:46:42;;;;;;;1999.90;999.90;;;5.20;99.90;;;;;;5075140;28;20037;-74
2023/04/26 06:49:09;;;;;;;1999.90;999.90;;;5.30;99.90;;;;;;5074926;28;20029;-74
2023/04/26 06:51:35;;;;;;;1999.90;999.90;;;5.40;99.90;;;;;;5074941;28;20052;-74
2023/04/26 06:54:01;;;;;;;1999.90;999.90;;;5.40;99.90;;;;;;5057466;28;20062;-74
2023/04/26 06:56:26;;;;;;;1999.90;999.90;;;5.50;99.90;;;;;;5075132;28;20032;-74
2023/04/26 06:59:05;;;;;;;1999.90;999.90;;;5.60;99.90;;;;;;5075073;28;20033;-74
2023/04/26 07:01:34;;;;;;;1999.90;999.90;;;5.70;99.90;;;;;;5075623;28;20021;-74
2023/04/26 07:04:02;;;;;;;1999.90;999.90;;;5.80;99.90;;;;;;5075092;28;20037;-74
2023/04/26 07:06:28;;;;;;;1999.90;999.90;;;6.00;99.90;;;;;;5057876;28;20060;-74
2023/04/26 07:08:54;;;;;;;1999.90;999.90;;;6.10;99.90;;;;;;5056342;28;20041;-74
2023/04/26 07:11:19;;;;;;;1999.90;999.90;;;6.30;99.90;;;;;;5075791;28;20083;-74
2023/04/26 07:13:45;;;;;;;1999.90;999.90;;;6.40;99.90;;;;;;5056804;28;20106;-74
2023/04/26 07:16:11;;;;;;;1999.90;999.90;;;6.50;99.90;;;;;;5056626;28;20116;-74
2023/04/26 07:18:36;;;;;;;1999.90;999.90;;;6.70;99.90;;;;;;5074633;28;20095;-74
2023/04/26 07:21:02;;;;;;;1999.90;999.90;;;6.90;99.90;;;;;;5056525;28;20075;-74
2023/04/26 07:23:28;;;;;;;1999.90;999.90;;;7.10;99.90;;;;;;5074694;28;20040;-74
2023/04/26 07:25:54;;;;;;;1999.90;999.90;;;7.30;99.90;;;;;;5074483;28;20025;-74
2023/04/26 07:28:20;;;;;;;1999.90;999.90;;;7.50;99.90;;;;;;5074531;28;20033;-74
2023/04/26 07:30:45;;;;;;;1999.90;999.90;;;7.60;99.90;;;;;;5074607;28;20040;-74
2023/04/26 07:33:11;;;;;;;1999.90;999.90;;;7.70;99.90;;;;;;5074464;28;20506;-74
2023/04/26 07:35:36;;;;;;;1999.90;999.90;;;7.90;99.90;;;;;;5056231;28;20055;-74
2023/04/26 07:38:02;;;;;;;1999.90;999.90;;;8.00;99.90;;;;;;5074208;28;20048;-74
2023/04/26 07:40:28;;;;;;;1999.90;999.90;;;8.10;99.90;;;;;;5074641;28;20371;-76
2023/04/26 07:42:54;;;;;;;1999.90;999.90;;;8.30;99.90;;;;;;5056090;28;20183;-74
2023/04/26 07:45:20;;;;;;;1999.90;999.90;;;8.30;99.90;;;;;;5074000;28;20166;-74
2023/04/26 07:47:45;;;;;;;1999.90;999.90;;;8.40;99.90;;;;;;5074493;28;20040;-74
2023/04/26 07:50:11;;;;;;;1999.90;999.90;;;8.50;99.90;;;;;;5056210;28;20036;-74
2023/04/26 07:52:37;;;;;;;1999.90;999.90;;;8.50;99.90;;;;;;5077084;28;20036;-74
2023/04/26 07:55:03;;;;;;;1999.90;999.90;;;8.60;99.90;;;;;;5059284;28;20482;-74
2023/04/26 07:57:28;;;;;;;1999.90;999.90;;;8.90;99.90;;;;;;5059810;28;20116;-74
2023/04/26 07:59:54;;;;;;;1999.90;999.90;;;9.00;99.90;;;;;;5077554;28;20037;-74
2023/04/26 08:02:19;;;;;;;1999.90;999.90;;;9.20;99.90;;;;;;5077729;28;20040;-74
2023/04/26 08:04:51;;;;;;;1999.90;999.90;;;9.30;99.90;;;;;;5077630;28;20525;-75
2023/04/26 08:07:20;;;;;;;1999.90;999.90;;;9.60;99.90;;;;;;5077531;28;20029;-76
2023/04/26 08:09:47;;;;;;;1999.90;999.90;;;9.80;99.90;;;;;;5058945;28;20129;-75
2023/04/26 08:12:13;;;;;;;1999.90;999.90;;;10.00;99.90;;;;;;5077703;28;20045;-75
2023/04/26 08:14:39;;;;;;;1999.90;999.90;;;10.30;99.90;;;;;;5077440;28;20037;-75
2023/04/26 08:17:11;;;;;;;1999.90;999.90;;;10.40;99.90;;;;;;5078071;28;20043;-74
2023/04/26 08:19:36;;;;;;;1999.90;999.90;;;10.60;99.90;;;;;;5077367;28;20036;-75
2023/04/26 08:22:02;;;;;;;1999.90;999.90;;;10.80;99.90;;;;;;5059681;28;20025;-75
2023/04/26 08:24:28;;;;;;;1999.90;999.90;;;10.50;98.30;;;;;;5077103;28;20497;-75
2023/04/26 08:26:54;;;;;;;1999.90;999.90;;;10.40;99.60;;;;;;5077708;28;20029;-75
2023/04/26 08:29:20;;;;;;;1999.90;999.90;;;10.40;99.90;;;;;;5076912;28;20053;-75
2023/04/26 08:31:46;;;;;;;1999.90;999.90;;;10.30;98.40;;;;;;5058840;28;20056;-75
2023/04/26 08:34:12;;;;;;;1999.90;999.90;;;10.40;99.10;;;;;;5076848;28;20513;-75
2023/04/26 08:36:41;;;;;;;1999.90;999.90;;;10.60;97.70;;;;;;5076707;28;20040;-75
2023/04/26 08:39:07;;;;;;;1999.90;999.90;;;10.90;96.50;;;;;;5058388;28;20059;-76
2023/04/26 08:41:36;;;;;;;1999.90;999.90;;;11.10;97.60;;;;;;5077024;28;20505;-75
2023/04/26 08:44:04;;;;;;;1999.90;999.90;;;11.00;96.60;;;;;;5076576;28;20041;-76
2023/04/26 08:46:39;;;;;;;1999.90;999.90;;;11.30;95.70;;;;;;5077081;28;20039;-75
2023/04/26 08:49:19;;;;;;;1999.90;999.90;;;11.10;94.70;;;;;;5076927;28;20048;-75
2023/04/26 08:51:46;;;;;;;1999.90;999.90;;;10.70;95.30;;;;;;5077190;28;20036;-75
2023/04/26 08:54:13;;;;;;;1999.90;999.90;;;10.80;95.80;;;;;;5058465;28;20048;-76
2023/04/26 08:56:42;;;;;;;1999.90;999.90;;;11.00;94.10;;;;;;5076886;28;20589;-75
2023/04/26 08:59:08;;;;;;;1999.90;999.90;;;11.30;94.10;;;;;;5076540;28;20037;-75
2023/04/26 09:01:38;;;;;;;1999.90;999.90;;;11.40;93.50;;;;;;5076711;28;20406;-75
2023/04/26 09:04:04;;;;;;;1999.90;999.90;;;11.40;93.30;;;;;;5076229;28;20045;-75
2023/04/26 09:06:30;;;;;;;1999.90;999.90;;;11.80;94.30;;;;;;5076749;28;20064;-76
2023/04/26 09:08:57;;;;;;;1999.90;999.90;;;12.00;91.60;;;;;;5076340;28;20048;-75
2023/04/26 09:11:23;;;;;;;1999.90;999.90;;;12.20;93.30;;;;;;5076680;28;20025;-75
2023/04/26 09:13:48;;;;;;;1999.90;999.90;;;12.00;90.60;;;;;;5076633;28;20041;-75
2023/04/26 09:16:14;;;;;;;1999.90;999.90;;;11.80;90.40;;;;;;5076613;28;20370;-76
2023/04/26 09:18:50;;;;;;;1999.90;999.90;;;11.70;90.00;;;;;;5076186;28;20041;-75
2023/04/26 09:21:17;;;;;;;1999.90;999.90;;;11.40;91.00;;;;;;5076477;28;20785;-76
2023/04/26 09:24:03;;;;;;;1999.90;999.90;;;11.00;93.00;;;;;;5076185;28;20040;-76
2023/04/26 09:26:29;;;;;;;1999.90;999.90;;;10.60;92.90;;;;;;5057693;28;20115;-75
2023/04/26 09:29:17;;;;;;;1999.90;999.90;;;10.50;92.60;;;;;;5057859;28;20481;-75
2023/04/26 09:31:45;;;;;;;1999.90;999.90;;;10.80;93.50;;;;;;5076435;28;20477;-75
2023/04/26 09:34:12;;;;;;;1999.90;999.90;;;11.20;93.00;;;;;;5075896;28;20518;-75
2023/04/26 09:36:52;;;;;;;1999.90;999.90;;;11.90;91.80;;;;;;5076094;28;20069;-76
2023/04/26 09:39:36;;;;;;;1999.90;999.90;;;12.60;90.40;;;;;;5076045;28;20455;-76
2023/04/26 09:42:03;;;;;;;1999.90;999.90;;;12.50;89.60;;;;;;5076233;28;20586;-76
2023/04/26 09:44:30;;;;;;;1999.90;999.90;;;12.60;92.20;;;;;;5075914;28;20068;-73
2023/04/26 09:47:02;;;;;;;1999.90;999.90;;;12.70;90.20;;;;;;5076240;28;20057;-74
2023/04/26 09:49:42;;;;;;;1999.90;999.90;;;13.00;88.10;;;;;;5057653;28;20041;-74
2023/04/26 09:52:07;;;;;;;1999.90;999.90;;;13.00;91.20;;;;;;5076038;28;20021;-75
2023/04/26 09:54:50;;;;;;;1999.90;999.90;;;13.00;88.30;;;;;;5075625;28;20037;-75
2023/04/26 09:57:18;;;;;;;1999.90;999.90;;;13.20;88.20;;;;;;5058381;28;20036;-75
2023/04/26 09:59:55;;;;;;;1999.90;999.90;;;13.40;89.80;;;;;;5075362;28;20025;-75
2023/04/26 10:02:25;;;;;;;1999.90;999.90;;;14.00;82.70;;;;;;5075997;28;20124;-75
2023/04/26 10:04:53;;;;;;;1999.90;999.90;;;14.20;82.20;;;;;;5075482;28;20037;-72
2023/04/26 10:07:21;;;;;;;1999.90;999.90;;;14.20;80.20;;;;;;5057336;28;20040;-73
2023/04/26 10:09:47;;;;;;;1999.90;999.90;;;13.90;78.80;;;;;;5127947;22;20040;-71
2023/04/26 10:12:15;;;;;;;1999.90;999.90;;;13.50;80.20;;;;;;5115836;28;20047;-74
2023/04/26 10:14:42;;;;;;;1999.90;999.90;;;13.20;80.30;;;;;;5115224;27;20039;-74
2023/04/26 10:17:07;;;;;;;1999.90;999.90;;;13.30;86.20;;;;;;5116249;28;20548;-74
2023/04/26 10:19:34;;;;;;;1999.90;999.90;;;13.20;79.60;;;;;;5116279;28;20040;-74
2023/04/26 10:22:07;;;;;;;1999.90;999.90;;;13.30;81.70;;;;;;5116056;28;20106;-74
2023/04/26 10:24:34;;;;;;;1999.90;999.90;;;13.30;84.50;;;;;;5097703;28;20047;-74
2023/04/26 10:27:00;;;;;;;1999.90;999.90;;;13.80;81.30;;;;;;5116156;28;20475;-74
2023/04/26 10:29:46;;;;;;;1999.90;999.90;;;13.90;75.50;;;;;;5097608;28;20046;-74
2023/04/26 10:32:15;;;;;;;1999.90;999.90;;;13.80;77.70;;;;;;5115764;28;20028;-74
2023/04/26 10:34:42;;;;;;;1999.90;999.90;;;13.70;80.80;;;;;;5115777;28;20525;-74
2023/04/26 10:37:17;;;;;;;1999.90;999.90;;;14.10;78.20;;;;;;5116546;28;20359;-74
2023/04/26 10:39:44;;;;;;;1999.90;999.90;;;15.00;74.90;;;;;;5098396;28;20036;-72
2023/04/26 10:42:26;;;;;;;1999.90;999.90;;;15.80;72.70;;;;;;5098005;28;20043;-73
2023/04/26 10:44:58;;;;;;;1999.90;999.90;;;16.20;69.50;;;;;;5116039;28;20036;-74
2023/04/26 10:47:33;;;;;;;1999.90;999.90;;;16.20;66.90;;;;;;5115813;28;20032;-73
2023/04/26 10:50:02;;;;;;;1999.90;999.90;;;16.20;70.60;;;;;;5115473;28;20081;-74
2023/04/26 10:52:28;;;;;;;1999.90;999.90;;;16.80;72.50;;;;;;5116201;28;20032;-73
2023/04/26 10:54:56;;;;;;;1999.90;999.90;;;15.80;64.70;;;;;;5097053;28;20032;-73
2023/04/26 10:57:23;;;;;;;1999.90;999.90;;;15.40;70.70;;;;;;5115707;28;20031;-73
2023/04/26 11:00:12;;;;;;;1999.90;999.90;;;15.40;67.50;;;;;;5097997;28;20562;-73
2023/04/26 11:02:50;;;;;;;1999.90;999.90;;;15.40;73.00;;;;;;5093443;28;20131;-73
2023/04/26 11:05:37;;;;;;;1999.90;999.90;;;15.10;70.20;;;;;;5115769;28;20497;-73
2023/04/26 11:08:20;;;;;;;1999.90;999.90;;;15.00;73.50;;;;;;5115099;28;20508;-74
2023/04/26 11:11:09;;;;;;;1999.90;999.90;;;15.40;69.30;;;;;;5115917;28;20027;-73
2023/04/26 11:13:40;;;;;;;1999.90;999.90;;;16.10;66.10;;;;;;5115472;28;20028;-73
2023/04/26 11:16:07;;;;;;;1999.90;999.90;;;15.90;67.20;;;;;;5115147;28;20028;-74
2023/04/26 11:18:34;;;;;;;1999.90;999.90;;;15.60;65.80;;;;;;5114908;28;20043;-73
2023/04/26 11:21:00;;;;;;;1999.90;999.90;;;16.00;65.20;;;;;;5114988;28;20029;-74
2023/04/26 11:23:27;;;;;;;1999.90;999.90;;;15.80;66.90;;;;;;5115267;28;20969;-74
2023/04/26 11:26:03;;;;;;;1999.90;999.90;;;15.80;67.40;;;;;;5115164;27;20047;-73
2023/04/26 11:28:32;;;;;;;1999.90;999.90;;;15.60;64.00;;;;;;5118867;28;20514;-73
2023/04/26 11:30:58;;;;;;;1999.90;999.90;;;15.00;65.80;;;;;;5100186;28;20032;-74
2023/04/26 11:33:24;;;;;;;1999.90;999.90;;;15.30;67.50;;;;;;5100127;28;20032;-74
2023/04/26 11:35:51;;;;;;;1999.90;999.90;;;15.40;68.60;;;;;;5099635;28;20035;-73
2023/04/26 11:38:20;;;;;;;1999.90;999.90;;;14.70;67.80;;;;;;5100280;28;20036;-73
2023/04/26 11:40:53;;;;;;;1999.90;999.90;;;14.80;71.40;;;;;;5118481;28;20032;-74
2023/04/26 11:43:19;;;;;;;1999.90;999.90;;;14.90;74.20;;;;;;5118831;28;20063;-74
2023/04/26 11:45:45;;;;;;;1999.90;999.90;;;14.60;68.00;;;;;;5118458;28;20493;-73
2023/04/26 11:48:12;;;;;;;1999.90;999.90;;;14.40;76.70;;;;;;5118136;28;20032;-73
2023/04/26 11:50:38;;;;;;;1999.90;999.90;;;14.40;72.50;;;;;;5118460;28;20028;-73
2023/04/26 11:53:05;;;;;;;1999.90;999.90;;;14.70;71.20;;;;;;5118397;28;20032;-73
2023/04/26 11:55:35;;;;;;;1999.90;999.90;;;14.60;69.60;;;;;;5118099;28;20079;-73
2023/04/26 11:58:09;;;;;;;1999.90;999.90;;;14.80;76.20;;;;;;5118131;28;20028;-73
2023/04/26 12:00:35;;;;;;;1999.90;999.90;;;15.30;67.60;;;;;;5118343;28;20791;-74
2023/04/26 12:03:10;;;;;;;1999.90;999.90;;;15.80;72.50;;;;;;5118498;28;20093;-74
2023/04/26 12:05:35;;;;;;;1999.90;999.90;;;15.80;66.50;;;;;;5117909;28;20035;-74